createdAt,value
2023-12-28T00:00:13.592Z,998.92
2023-12-28T00:00:43.652Z,999.03
2023-12-28T00:01:13.585Z,998.92
2023-12-28T00:01:43.627Z,998.92
2023-12-28T00:02:13.521Z,998.88
2023-12-28T00:02:43.528Z,998.90
2023-12-28T00:03:13.637Z,998.87
2023-12-28T00:03:43.599Z,998.84
2023-12-28T00:04:13.631Z,998.81
2023-12-28T00:04:43.514Z,998.89
2023-12-28T00:05:13.605Z,998.93
2023-12-28T00:05:43.529Z,999.03
2023-12-28T00:06:13.523Z,999.05
2023-12-28T00:06:43.561Z,999.15
2023-12-28T00:07:13.559Z,999.14
2023-12-28T00:07:43.457Z,999.22
2023-12-28T00:08:16.495Z,999.09
2023-12-28T00:09:08.353Z,999.18
2023-12-28T00:09:16.773Z,998.99
2023-12-28T00:09:43.453Z,999.08
2023-12-28T00:10:13.476Z,999.21
2023-12-28T00:10:43.458Z,999.27
2023-12-28T00:11:13.416Z,999.19
2023-12-28T00:11:43.426Z,999.21
2023-12-28T00:12:13.422Z,999.23
2023-12-28T00:12:43.451Z,999.22
2023-12-28T00:13:13.407Z,999.26
2023-12-28T00:13:43.397Z,999.27
2023-12-28T00:14:13.407Z,999.23
2023-12-28T00:14:43.378Z,999.26
2023-12-28T00:15:13.437Z,999.21
2023-12-28T00:15:43.420Z,999.17
2023-12-28T00:16:13.405Z,999.10
2023-12-28T00:16:43.359Z,999.05
2023-12-28T00:17:13.358Z,999.20
2023-12-28T00:17:43.483Z,999.19
2023-12-28T00:18:13.710Z,999.12
2023-12-28T00:18:43.529Z,999.14
2023-12-28T00:19:13.465Z,999.18
2023-12-28T00:19:43.433Z,999.22
2023-12-28T00:20:13.336Z,999.27
2023-12-28T00:20:43.356Z,999.24
2023-12-28T00:21:13.369Z,999.22
2023-12-28T00:21:43.381Z,999.27
2023-12-28T00:22:13.452Z,999.24
2023-12-28T00:22:43.473Z,999.19
2023-12-28T00:23:13.328Z,999.14
2023-12-28T00:23:43.293Z,999.11
2023-12-28T00:24:13.320Z,999.16
2023-12-28T00:24:43.316Z,999.13
2023-12-28T00:25:13.288Z,999.11
2023-12-28T00:25:43.282Z,999.22
2023-12-28T00:26:13.283Z,999.21
2023-12-28T00:26:43.308Z,999.16
2023-12-28T00:27:13.303Z,999.20
2023-12-28T00:27:43.320Z,999.32
2023-12-28T00:28:13.254Z,999.37
2023-12-28T00:28:43.251Z,999.29
2023-12-28T00:29:13.226Z,999.31
2023-12-28T00:29:43.230Z,999.38
2023-12-28T00:30:13.305Z,999.30
2023-12-28T00:30:43.300Z,999.30
2023-12-28T00:31:13.296Z,999.28
2023-12-28T00:31:43.369Z,999.37
2023-12-28T00:32:13.211Z,999.31
2023-12-28T00:32:43.239Z,999.38
2023-12-28T00:33:13.248Z,999.33
2023-12-28T00:33:43.346Z,999.40
2023-12-28T00:34:13.267Z,999.41
2023-12-28T00:34:43.218Z,999.41
2023-12-28T00:35:13.177Z,999.42
2023-12-28T00:35:43.204Z,999.50
2023-12-28T00:36:16.207Z,999.58
2023-12-28T00:37:01.303Z,999.59
2023-12-28T00:37:13.146Z,999.62
2023-12-28T00:37:43.149Z,999.56
2023-12-28T00:38:13.138Z,999.70
2023-12-28T00:38:43.163Z,999.73
2023-12-28T00:39:13.199Z,999.64
2023-12-28T00:39:43.156Z,999.65
2023-12-28T00:40:13.141Z,999.62
2023-12-28T00:40:43.113Z,999.52
2023-12-28T00:41:13.124Z,999.69
2023-12-28T00:41:43.112Z,999.57
2023-12-28T00:42:13.231Z,999.69
2023-12-28T00:42:43.147Z,999.68
2023-12-28T00:43:13.091Z,999.72
2023-12-28T00:43:43.122Z,999.67
2023-12-28T00:44:13.106Z,999.71
2023-12-28T00:44:43.076Z,999.71
2023-12-28T00:45:13.150Z,999.71
2023-12-28T00:45:43.164Z,999.78
2023-12-28T00:46:13.064Z,999.84
2023-12-28T00:46:43.072Z,999.90
2023-12-28T00:47:13.075Z,999.76
2023-12-28T00:47:43.050Z,999.79
2023-12-28T00:48:13.168Z,999.83
2023-12-28T00:48:43.125Z,999.90
2023-12-28T00:49:13.179Z,999.79
2023-12-28T00:49:43.100Z,999.89
2023-12-28T00:50:13.155Z,999.88
2023-12-28T00:50:43.170Z,1000.03
2023-12-28T00:51:13.052Z,999.77
2023-12-28T00:51:43.020Z,999.80
2023-12-28T00:52:12.994Z,999.88
2023-12-28T00:52:42.999Z,999.73
2023-12-28T00:53:12.998Z,999.75
2023-12-28T00:53:43.002Z,999.78
2023-12-28T00:54:13.055Z,999.74
2023-12-28T00:54:43.038Z,999.77
2023-12-28T00:55:12.980Z,999.74
2023-12-28T00:55:42.961Z,999.87
2023-12-28T00:56:12.963Z,999.78
2023-12-28T00:56:42.957Z,999.72
2023-12-28T00:57:12.984Z,999.69
2023-12-28T00:57:42.968Z,999.75
2023-12-28T00:58:12.931Z,999.80
2023-12-28T00:58:42.929Z,999.87
2023-12-28T00:59:12.939Z,999.82
2023-12-28T00:59:42.966Z,999.89
2023-12-28T01:00:12.977Z,999.91
2023-12-28T01:00:43.003Z,999.87
2023-12-28T01:01:13.166Z,999.85
2023-12-28T01:01:42.962Z,999.96
2023-12-28T01:02:12.904Z,999.82
2023-12-28T01:02:42.902Z,999.83
2023-12-28T01:03:13.092Z,999.97
2023-12-28T01:03:43.011Z,999.91
2023-12-28T01:04:16.002Z,999.90
2023-12-28T01:05:01.065Z,999.83
2023-12-28T01:05:12.872Z,999.84
2023-12-28T01:05:42.901Z,999.81
2023-12-28T01:06:13.000Z,999.87
2023-12-28T01:06:42.917Z,999.96
2023-12-28T01:07:12.920Z,999.93
2023-12-28T01:07:42.872Z,999.85
2023-12-28T01:08:12.848Z,999.91
2023-12-28T01:08:42.836Z,999.82
2023-12-28T01:09:12.858Z,999.80
2023-12-28T01:09:42.909Z,999.93
2023-12-28T01:10:12.810Z,999.78
2023-12-28T01:10:42.827Z,999.95
2023-12-28T01:11:12.802Z,999.73
2023-12-28T01:11:43.515Z,999.78
2023-12-28T01:12:12.822Z,999.76
2023-12-28T01:12:42.833Z,1000.01
2023-12-28T01:13:12.805Z,999.89
2023-12-28T01:13:43.071Z,999.84
2023-12-28T01:14:12.784Z,999.83
2023-12-28T01:14:42.805Z,999.93
2023-12-28T01:15:12.786Z,999.84
2023-12-28T01:15:42.821Z,999.88
2023-12-28T01:16:12.757Z,999.87
2023-12-28T01:16:42.749Z,999.94
2023-12-28T01:17:12.762Z,999.94
2023-12-28T01:17:42.776Z,999.94
2023-12-28T01:18:13.059Z,999.97
2023-12-28T01:18:42.995Z,1000.05
2023-12-28T01:19:12.999Z,1000.05
2023-12-28T01:19:42.880Z,999.97
2023-12-28T01:20:12.721Z,999.97
2023-12-28T01:20:42.702Z,999.94
2023-12-28T01:21:12.757Z,999.96
2023-12-28T01:21:42.744Z,1000.06
2023-12-28T01:22:12.685Z,999.92
2023-12-28T01:22:42.687Z,1000.00
2023-12-28T01:23:12.683Z,999.92
2023-12-28T01:23:42.712Z,1000.06
2023-12-28T01:24:12.677Z,1000.01
2023-12-28T01:24:42.701Z,999.98
2023-12-28T01:25:12.694Z,1000.02
2023-12-28T01:25:42.677Z,999.97
2023-12-28T01:26:12.671Z,1000.08
2023-12-28T01:26:42.671Z,1000.07
2023-12-28T01:27:12.695Z,1000.15
2023-12-28T01:27:42.741Z,1000.07
2023-12-28T01:28:12.683Z,1000.16
2023-12-28T01:28:42.664Z,1000.16
2023-12-28T01:29:12.617Z,1000.26
2023-12-28T01:29:42.658Z,1000.33
2023-12-28T01:30:12.841Z,1000.20
2023-12-28T01:30:42.769Z,1000.19
2023-12-28T01:31:12.850Z,1000.13
2023-12-28T01:31:42.700Z,1000.18
2023-12-28T01:32:15.636Z,1000.25
2023-12-28T01:33:00.761Z,1000.29
2023-12-28T01:33:12.823Z,1000.25
2023-12-28T01:33:42.722Z,1000.18
2023-12-28T01:34:12.757Z,1000.26
2023-12-28T01:34:42.741Z,1000.16
2023-12-28T01:35:12.691Z,1000.25
2023-12-28T01:35:42.661Z,1000.11
2023-12-28T01:36:12.575Z,1000.09
2023-12-28T01:36:42.642Z,1000.15
2023-12-28T01:37:12.712Z,1000.18
2023-12-28T01:37:42.577Z,1000.27
2023-12-28T01:38:12.635Z,1000.31
2023-12-28T01:38:42.568Z,1000.22
2023-12-28T01:39:12.624Z,1000.18
2023-12-28T01:39:42.685Z,1000.17
2023-12-28T01:40:12.544Z,1000.22
2023-12-28T01:40:42.560Z,1000.18
2023-12-28T01:41:12.521Z,1000.22
2023-12-28T01:41:42.619Z,1000.25
2023-12-28T01:42:12.684Z,1000.23
2023-12-28T01:42:42.749Z,1000.23
2023-12-28T01:43:12.529Z,1000.21
2023-12-28T01:43:42.675Z,1000.20
2023-12-28T01:44:12.510Z,1000.19
2023-12-28T01:44:42.478Z,1000.25
2023-12-28T01:45:12.641Z,1000.33
2023-12-28T01:45:42.629Z,1000.42
2023-12-28T01:46:12.617Z,1000.32
2023-12-28T01:46:42.671Z,1000.27
2023-12-28T01:47:12.452Z,1000.27
2023-12-28T01:47:42.465Z,1000.32
2023-12-28T01:48:12.590Z,1000.23
2023-12-28T01:48:42.497Z,1000.32
2023-12-28T01:49:12.506Z,1000.23
2023-12-28T01:49:42.545Z,1000.28
2023-12-28T01:50:12.428Z,1000.33
2023-12-28T01:50:42.463Z,1000.32
2023-12-28T01:51:12.418Z,1000.30
2023-12-28T01:51:42.449Z,1000.34
2023-12-28T01:52:12.475Z,1000.25
2023-12-28T01:52:42.441Z,1000.30
2023-12-28T01:53:12.410Z,1000.31
2023-12-28T01:53:42.378Z,1000.22
2023-12-28T01:54:12.447Z,1000.23
2023-12-28T01:54:42.410Z,1000.27
2023-12-28T01:55:12.359Z,1000.15
2023-12-28T01:55:42.380Z,1000.16
2023-12-28T01:56:12.355Z,1000.11
2023-12-28T01:56:42.335Z,1000.24
2023-12-28T01:57:12.436Z,1000.20
2023-12-28T01:57:42.394Z,1000.20
2023-12-28T01:58:12.314Z,1000.33
2023-12-28T01:58:42.332Z,1000.25
2023-12-28T01:59:12.315Z,1000.29
2023-12-28T01:59:42.308Z,1000.18
2023-12-28T02:00:15.353Z,1000.24
2023-12-28T02:01:00.500Z,1000.10
2023-12-28T02:01:12.427Z,1000.10
2023-12-28T02:01:42.305Z,1000.22
2023-12-28T02:02:12.294Z,1000.22
2023-12-28T02:02:42.282Z,1000.22
2023-12-28T02:03:12.322Z,1000.14
2023-12-28T02:03:42.437Z,1000.15
2023-12-28T02:04:12.353Z,1000.17
2023-12-28T02:04:42.383Z,1000.25
2023-12-28T02:05:12.251Z,1000.37
2023-12-28T02:05:42.360Z,1000.26
2023-12-28T02:06:12.373Z,1000.22
2023-12-28T02:06:42.270Z,1000.23
2023-12-28T02:07:12.281Z,1000.21
2023-12-28T02:07:42.254Z,1000.22
2023-12-28T02:08:12.218Z,1000.28
2023-12-28T02:08:42.210Z,1000.39
2023-12-28T02:09:12.226Z,1000.31
2023-12-28T02:09:42.315Z,1000.34
2023-12-28T02:10:12.203Z,1000.42
2023-12-28T02:10:42.215Z,1000.43
2023-12-28T02:11:12.244Z,1000.45
2023-12-28T02:11:42.185Z,1000.48
2023-12-28T02:12:12.285Z,1000.39
2023-12-28T02:12:42.253Z,1000.48
2023-12-28T02:13:12.172Z,1000.45
2023-12-28T02:13:42.176Z,1000.32
2023-12-28T02:14:12.320Z,1000.33
2023-12-28T02:14:42.333Z,1000.33
2023-12-28T02:15:12.307Z,1000.33
2023-12-28T02:15:42.209Z,1000.29
2023-12-28T02:16:12.188Z,1000.35
2023-12-28T02:16:42.147Z,1000.40
2023-12-28T02:17:12.142Z,1000.45
2023-12-28T02:17:42.137Z,1000.40
2023-12-28T02:18:12.257Z,1000.41
2023-12-28T02:18:42.173Z,1000.41
2023-12-28T02:19:12.145Z,1000.40
2023-12-28T02:19:42.107Z,1000.40
2023-12-28T02:20:12.112Z,1000.43
2023-12-28T02:20:42.114Z,1000.46
2023-12-28T02:21:12.132Z,1000.46
2023-12-28T02:21:42.146Z,1000.56
2023-12-28T02:22:12.077Z,1000.51
2023-12-28T02:22:42.085Z,1000.59
2023-12-28T02:23:12.067Z,1000.61
2023-12-28T02:23:42.090Z,1000.61
2023-12-28T02:24:12.131Z,1000.62
2023-12-28T02:24:42.129Z,1000.65
2023-12-28T02:25:12.059Z,1000.64
2023-12-28T02:25:42.044Z,1000.54
2023-12-28T02:26:12.033Z,1000.62
2023-12-28T02:26:42.084Z,1000.59
2023-12-28T02:27:12.044Z,1000.61
2023-12-28T02:27:42.084Z,1000.66
2023-12-28T02:28:15.028Z,1000.64
2023-12-28T02:29:00.150Z,1000.60
2023-12-28T02:29:12.009Z,1000.62
2023-12-28T02:29:41.999Z,1000.58
2023-12-28T02:30:12.318Z,1000.60
2023-12-28T02:30:42.042Z,1000.88
2023-12-28T02:31:12.088Z,1000.67
2023-12-28T02:31:42.115Z,1000.64
2023-12-28T02:32:12.003Z,1000.69
2023-12-28T02:32:42.060Z,1000.71
2023-12-28T02:33:12.176Z,1000.70
2023-12-28T02:33:42.029Z,1000.69
2023-12-28T02:34:11.994Z,1000.71
2023-12-28T02:34:42.055Z,1000.56
2023-12-28T02:35:11.941Z,1000.70
2023-12-28T02:35:41.944Z,1000.83
2023-12-28T02:36:12.005Z,1000.73
2023-12-28T02:36:41.996Z,1000.64
2023-12-28T02:37:11.923Z,1000.66
2023-12-28T02:37:41.961Z,1000.66
2023-12-28T02:38:11.962Z,1000.63
2023-12-28T02:38:41.920Z,1000.61
2023-12-28T02:39:11.942Z,1000.62
2023-12-28T02:39:41.932Z,1000.59
2023-12-28T02:40:11.892Z,1000.62
2023-12-28T02:40:41.925Z,1000.78
2023-12-28T02:41:11.897Z,1000.78
2023-12-28T02:41:41.918Z,1000.65
2023-12-28T02:42:12.106Z,1000.57
2023-12-28T02:42:42.181Z,1000.63
2023-12-28T02:43:11.883Z,1000.64
2023-12-28T02:43:41.862Z,1000.53
2023-12-28T02:44:11.852Z,1000.59
2023-12-28T02:44:41.874Z,1000.62
2023-12-28T02:45:11.891Z,1000.61
2023-12-28T02:45:41.922Z,1000.58
2023-12-28T02:46:11.846Z,1000.49
2023-12-28T02:46:41.846Z,1000.55
2023-12-28T02:47:11.823Z,1000.57
2023-12-28T02:47:41.882Z,1000.64
2023-12-28T02:48:11.961Z,1000.57
2023-12-28T02:48:41.979Z,1000.59
2023-12-28T02:49:11.884Z,1000.59
2023-12-28T02:49:41.906Z,1000.61
2023-12-28T02:50:11.797Z,1000.65
2023-12-28T02:50:41.778Z,1000.62
2023-12-28T02:51:11.806Z,1000.73
2023-12-28T02:51:41.804Z,1000.74
2023-12-28T02:52:11.763Z,1000.59
2023-12-28T02:52:41.765Z,1000.63
2023-12-28T02:53:11.759Z,1000.57
2023-12-28T02:53:41.746Z,1000.49
2023-12-28T02:54:12.709Z,1000.64
2023-12-28T02:54:41.754Z,1000.54
2023-12-28T02:55:11.734Z,1000.61
2023-12-28T02:55:41.744Z,1000.51
2023-12-28T02:56:14.743Z,1000.51
2023-12-28T02:56:59.849Z,1000.65
2023-12-28T02:57:11.731Z,1000.73
2023-12-28T02:57:41.749Z,1000.58
2023-12-28T02:58:11.738Z,1000.55
2023-12-28T02:58:41.702Z,1000.61
2023-12-28T02:59:11.694Z,1000.70
2023-12-28T02:59:41.722Z,1000.76
2023-12-28T03:00:11.871Z,1000.72
2023-12-28T03:00:41.818Z,1000.56
2023-12-28T03:01:11.770Z,1000.69
2023-12-28T03:01:41.714Z,1000.63
2023-12-28T03:02:11.657Z,1000.68
2023-12-28T03:02:41.678Z,1000.67
2023-12-28T03:03:11.772Z,1000.66
2023-12-28T03:03:41.729Z,1000.59
2023-12-28T03:04:11.706Z,1000.50
2023-12-28T03:04:41.640Z,1000.53
2023-12-28T03:05:11.687Z,1000.49
2023-12-28T03:05:41.718Z,1000.61
2023-12-28T03:06:11.762Z,1000.63
2023-12-28T03:06:41.674Z,1000.62
2023-12-28T03:07:11.611Z,1000.58
2023-12-28T03:07:41.591Z,1000.52
2023-12-28T03:08:11.613Z,1000.52
2023-12-28T03:08:41.639Z,1000.60
2023-12-28T03:09:11.715Z,1000.54
2023-12-28T03:09:41.641Z,1000.65
2023-12-28T03:10:14.550Z,1000.63
2023-12-28T03:10:41.756Z,1000.73
2023-12-28T03:11:11.565Z,1000.71
2023-12-28T03:11:41.566Z,1000.69
2023-12-28T03:12:11.634Z,1000.64
2023-12-28T03:12:41.605Z,1000.60
2023-12-28T03:13:11.558Z,1000.61
2023-12-28T03:13:41.574Z,1000.58
2023-12-28T03:14:11.549Z,1000.36
2023-12-28T03:14:41.543Z,1000.55
2023-12-28T03:15:11.535Z,1000.49
2023-12-28T03:15:41.536Z,1000.85
2023-12-28T03:16:12.160Z,1000.56
2023-12-28T03:16:41.519Z,1000.52
2023-12-28T03:17:11.526Z,1000.44
2023-12-28T03:17:41.659Z,1000.42
2023-12-28T03:18:11.567Z,1000.50
2023-12-28T03:18:41.657Z,1000.45
2023-12-28T03:19:11.634Z,1000.44
2023-12-28T03:19:41.610Z,1000.52
2023-12-28T03:20:11.562Z,1000.45
2023-12-28T03:20:41.486Z,1000.38
2023-12-28T03:21:11.472Z,1000.43
2023-12-28T03:21:41.583Z,1000.52
2023-12-28T03:22:11.457Z,1000.55
2023-12-28T03:22:41.442Z,1000.58
2023-12-28T03:23:11.457Z,1000.65
2023-12-28T03:23:41.439Z,1000.56
2023-12-28T03:24:14.514Z,1000.40
2023-12-28T03:24:59.581Z,1000.44
2023-12-28T03:25:11.449Z,1000.39
2023-12-28T03:25:41.429Z,1000.42
2023-12-28T03:26:11.424Z,1000.39
2023-12-28T03:26:41.410Z,1000.38
2023-12-28T03:27:11.404Z,1000.38
2023-12-28T03:27:41.452Z,1000.36
2023-12-28T03:28:11.408Z,1000.30
2023-12-28T03:28:41.387Z,1000.38
2023-12-28T03:29:11.415Z,1000.33
2023-12-28T03:29:41.376Z,1000.34
2023-12-28T03:30:11.420Z,1000.27
2023-12-28T03:30:41.474Z,1000.31
2023-12-28T03:31:11.462Z,1000.20
2023-12-28T03:31:41.517Z,1000.18
2023-12-28T03:32:11.352Z,1000.26
2023-12-28T03:32:41.403Z,1000.25
2023-12-28T03:33:11.452Z,1000.19
2023-12-28T03:33:41.389Z,1000.22
2023-12-28T03:34:11.447Z,1000.29
2023-12-28T03:34:41.432Z,1000.20
2023-12-28T03:35:11.322Z,1000.12
2023-12-28T03:35:41.330Z,1000.22
2023-12-28T03:36:11.305Z,1000.22
2023-12-28T03:36:41.361Z,1000.21
2023-12-28T03:37:11.309Z,1000.45
2023-12-28T03:37:41.285Z,1000.18
2023-12-28T03:38:11.435Z,1000.16
2023-12-28T03:38:41.447Z,1000.19
2023-12-28T03:39:11.302Z,1000.17
2023-12-28T03:39:41.329Z,1000.12
2023-12-28T03:40:11.260Z,1000.19
2023-12-28T03:40:41.258Z,1000.30
2023-12-28T03:41:11.250Z,1000.30
2023-12-28T03:41:41.309Z,1000.32
2023-12-28T03:42:11.252Z,1000.12
2023-12-28T03:42:41.320Z,1000.08
2023-12-28T03:43:11.250Z,1000.15
2023-12-28T03:43:41.236Z,1000.13
2023-12-28T03:44:11.277Z,1000.09
2023-12-28T03:44:41.211Z,1000.11
2023-12-28T03:45:11.228Z,1000.21
2023-12-28T03:45:41.243Z,1000.16
2023-12-28T03:46:11.208Z,1000.15
2023-12-28T03:46:41.197Z,1000.22
2023-12-28T03:47:11.299Z,1000.22
2023-12-28T03:47:41.234Z,1000.28
2023-12-28T03:48:11.217Z,1000.22
2023-12-28T03:48:41.509Z,1000.12
2023-12-28T03:49:11.247Z,1000.27
2023-12-28T03:49:41.386Z,1000.29
2023-12-28T03:50:11.176Z,1000.34
2023-12-28T03:50:41.181Z,1000.31
2023-12-28T03:51:11.141Z,1000.25
2023-12-28T03:51:41.219Z,1000.34
2023-12-28T03:52:14.193Z,1000.30
2023-12-28T03:52:59.262Z,1000.20
2023-12-28T03:53:11.144Z,1000.24
2023-12-28T03:53:41.136Z,1000.28
2023-12-28T03:54:11.116Z,1000.27
2023-12-28T03:54:41.172Z,1000.31
2023-12-28T03:55:11.121Z,1000.26
2023-12-28T03:55:41.112Z,1000.30
2023-12-28T03:56:11.110Z,1000.35
2023-12-28T03:56:41.092Z,1000.29
2023-12-28T03:57:11.081Z,1000.26
2023-12-28T03:57:41.116Z,1000.18
2023-12-28T03:58:11.136Z,1000.34
2023-12-28T03:58:41.076Z,1000.28
2023-12-28T03:59:11.126Z,1000.30
2023-12-28T03:59:41.196Z,1000.22
2023-12-28T04:00:11.060Z,1000.30
2023-12-28T04:00:41.219Z,1000.43
2023-12-28T04:01:11.108Z,1000.24
2023-12-28T04:01:41.104Z,1000.32
2023-12-28T04:02:11.047Z,1000.36
2023-12-28T04:02:41.040Z,1000.35
2023-12-28T04:03:11.101Z,1000.49
2023-12-28T04:03:41.070Z,1000.39
2023-12-28T04:04:11.114Z,1000.30
2023-12-28T04:04:41.104Z,1000.51
2023-12-28T04:05:11.136Z,1000.34
2023-12-28T04:05:41.024Z,1000.34
2023-12-28T04:06:11.121Z,1000.43
2023-12-28T04:06:41.180Z,1000.36
2023-12-28T04:07:10.994Z,1000.34
2023-12-28T04:07:41.007Z,1000.38
2023-12-28T04:08:11.002Z,1000.44
2023-12-28T04:08:40.983Z,1000.38
2023-12-28T04:09:10.973Z,1000.69
2023-12-28T04:09:41.017Z,1000.66
2023-12-28T04:10:11.014Z,1000.44
2023-12-28T04:10:40.975Z,1000.53
2023-12-28T04:11:10.957Z,1000.34
2023-12-28T04:11:40.970Z,1000.58
2023-12-28T04:12:11.024Z,1000.35
2023-12-28T04:12:40.972Z,1000.42
2023-12-28T04:13:10.959Z,1000.59
2023-12-28T04:13:40.933Z,1000.79
2023-12-28T04:14:10.908Z,1000.56
2023-12-28T04:14:40.915Z,1000.39
2023-12-28T04:15:10.923Z,1000.40
2023-12-28T04:15:40.978Z,1000.43
2023-12-28T04:16:10.928Z,1000.43
2023-12-28T04:16:40.890Z,1000.42
2023-12-28T04:17:10.936Z,1000.38
2023-12-28T04:17:40.943Z,1000.40
2023-12-28T04:18:10.961Z,1000.43
2023-12-28T04:18:40.992Z,1000.44
2023-12-28T04:19:10.948Z,1000.30
2023-12-28T04:19:41.036Z,1000.58
2023-12-28T04:20:13.890Z,1000.59
2023-12-28T04:20:58.984Z,1000.48
2023-12-28T04:21:10.872Z,1000.50
2023-12-28T04:21:40.874Z,1000.54
2023-12-28T04:22:10.876Z,1000.50
2023-12-28T04:22:40.839Z,1000.48
2023-12-28T04:23:10.836Z,1000.57
2023-12-28T04:23:40.818Z,1000.54
2023-12-28T04:24:10.830Z,1000.44
2023-12-28T04:24:40.862Z,1000.43
2023-12-28T04:25:10.829Z,1000.57
2023-12-28T04:25:40.804Z,1000.48
2023-12-28T04:26:10.814Z,1000.43
2023-12-28T04:26:40.836Z,1000.49
2023-12-28T04:27:10.882Z,1000.56
2023-12-28T04:27:40.848Z,1000.50
2023-12-28T04:28:10.772Z,1000.56
2023-12-28T04:28:40.775Z,1000.49
2023-12-28T04:29:10.772Z,1000.48
2023-12-28T04:29:40.807Z,1000.44
2023-12-28T04:30:10.835Z,1000.42
2023-12-28T04:30:40.818Z,1000.45
2023-12-28T04:31:10.859Z,1000.45
2023-12-28T04:31:40.797Z,1000.55
2023-12-28T04:32:10.729Z,1000.61
2023-12-28T04:32:40.775Z,1000.56
2023-12-28T04:33:10.778Z,1000.58
2023-12-28T04:33:40.790Z,1000.54
2023-12-28T04:34:10.879Z,1000.78
2023-12-28T04:34:40.944Z,1000.55
2023-12-28T04:35:10.707Z,1000.68
2023-12-28T04:35:40.700Z,1000.62
2023-12-28T04:36:10.696Z,1000.53
2023-12-28T04:36:40.731Z,1000.55
2023-12-28T04:37:10.680Z,1000.56
2023-12-28T04:37:40.677Z,1000.55
2023-12-28T04:38:10.709Z,1000.75
2023-12-28T04:38:40.667Z,1000.67
2023-12-28T04:39:10.672Z,1000.51
2023-12-28T04:39:40.675Z,1000.55
2023-12-28T04:40:10.654Z,1000.56
2023-12-28T04:40:40.650Z,1000.47
2023-12-28T04:41:10.663Z,1000.70
2023-12-28T04:41:40.634Z,1000.51
2023-12-28T04:42:10.639Z,1000.60
2023-12-28T04:42:40.664Z,1000.64
2023-12-28T04:43:10.662Z,1000.60
2023-12-28T04:43:40.662Z,1000.58
2023-12-28T04:44:10.614Z,1000.56
2023-12-28T04:44:40.606Z,1000.60
2023-12-28T04:45:10.613Z,1000.65
2023-12-28T04:45:40.648Z,1000.69
2023-12-28T04:46:10.580Z,1000.56
2023-12-28T04:46:40.575Z,1000.63
2023-12-28T04:47:10.591Z,1000.61
2023-12-28T04:47:40.620Z,1000.50
2023-12-28T04:48:13.912Z,1000.52
2023-12-28T04:48:58.820Z,1000.49
2023-12-28T04:49:10.647Z,1000.48
2023-12-28T04:49:40.593Z,1000.58
2023-12-28T04:50:10.551Z,1000.53
2023-12-28T04:50:40.560Z,1000.47
2023-12-28T04:51:10.543Z,1000.44
2023-12-28T04:51:40.570Z,1000.47
2023-12-28T04:52:10.530Z,1000.56
2023-12-28T04:52:40.532Z,1000.43
2023-12-28T04:53:10.522Z,1000.62
2023-12-28T04:53:40.544Z,1000.57
2023-12-28T04:54:10.757Z,1000.57
2023-12-28T04:54:40.538Z,1000.53
2023-12-28T04:55:10.493Z,1000.63
2023-12-28T04:55:40.483Z,1000.59
2023-12-28T04:56:10.484Z,1000.57
2023-12-28T04:56:40.528Z,1000.54
2023-12-28T04:57:10.476Z,1000.46
2023-12-28T04:57:40.521Z,1000.57
2023-12-28T04:58:10.454Z,1000.46
2023-12-28T04:58:40.458Z,1000.53
2023-12-28T04:59:10.492Z,1000.40
2023-12-28T04:59:40.489Z,1000.47
2023-12-28T05:00:10.463Z,1000.45
2023-12-28T05:00:40.522Z,1000.45
2023-12-28T05:01:10.466Z,1000.36
2023-12-28T05:01:40.446Z,1000.50
2023-12-28T05:02:10.540Z,1000.43
2023-12-28T05:02:40.577Z,1000.39
2023-12-28T05:03:10.443Z,1000.42
2023-12-28T05:03:40.452Z,1000.47
2023-12-28T05:04:11.881Z,1000.41
2023-12-28T05:04:40.705Z,1000.42
2023-12-28T05:05:10.473Z,1000.50
2023-12-28T05:05:40.455Z,1000.45
2023-12-28T05:06:10.407Z,1000.39
2023-12-28T05:06:40.399Z,1000.38
2023-12-28T05:07:10.368Z,1000.37
2023-12-28T05:07:40.369Z,1000.41
2023-12-28T05:08:10.387Z,1000.51
2023-12-28T05:08:41.129Z,1000.37
2023-12-28T05:09:10.350Z,1000.53
2023-12-28T05:09:40.399Z,1000.47
2023-12-28T05:10:10.339Z,1000.48
2023-12-28T05:10:40.332Z,1000.51
2023-12-28T05:11:10.335Z,1000.47
2023-12-28T05:11:40.314Z,1000.56
2023-12-28T05:12:10.322Z,1000.38
2023-12-28T05:12:44.174Z,1000.42
2023-12-28T05:13:10.458Z,1000.45
2023-12-28T05:13:40.306Z,1000.47
2023-12-28T05:14:11.012Z,1000.36
2023-12-28T05:14:40.326Z,1000.50
2023-12-28T05:15:10.306Z,1000.59
2023-12-28T05:15:40.284Z,1000.47
2023-12-28T05:16:13.304Z,1000.61
2023-12-28T05:16:58.431Z,1000.44
2023-12-28T05:17:10.272Z,1000.52
2023-12-28T05:17:40.448Z,1000.50
2023-12-28T05:18:11.095Z,1000.40
2023-12-28T05:18:40.371Z,1000.50
2023-12-28T05:19:10.617Z,1000.35
2023-12-28T05:19:40.333Z,1000.40
2023-12-28T05:20:10.259Z,1000.43
2023-12-28T05:20:40.237Z,1000.38
2023-12-28T05:21:10.220Z,1000.47
2023-12-28T05:21:40.242Z,1000.48
2023-12-28T05:22:10.249Z,1000.41
2023-12-28T05:22:40.208Z,1000.40
2023-12-28T05:23:10.217Z,1000.41
2023-12-28T05:23:40.214Z,1000.44
2023-12-28T05:24:10.207Z,1000.51
2023-12-28T05:24:40.270Z,1000.71
2023-12-28T05:25:10.195Z,1000.44
2023-12-28T05:25:40.180Z,1000.50
2023-12-28T05:26:10.702Z,1000.40
2023-12-28T05:26:40.161Z,1000.44
2023-12-28T05:27:10.180Z,1000.46
2023-12-28T05:27:40.272Z,1000.44
2023-12-28T05:28:10.197Z,1000.46
2023-12-28T05:28:40.150Z,1000.47
2023-12-28T05:29:10.157Z,1000.50
2023-12-28T05:29:40.178Z,1000.57
2023-12-28T05:30:10.297Z,1000.60
2023-12-28T05:30:40.390Z,1000.58
2023-12-28T05:31:10.207Z,1000.56
2023-12-28T05:31:40.220Z,1000.63
2023-12-28T05:32:10.121Z,1000.58
2023-12-28T05:32:40.165Z,1000.68
2023-12-28T05:33:10.168Z,1000.69
2023-12-28T05:33:40.172Z,1000.83
2023-12-28T05:34:10.219Z,1000.77
2023-12-28T05:34:40.319Z,1000.71
2023-12-28T05:35:10.086Z,1000.79
2023-12-28T05:35:40.077Z,1000.67
2023-12-28T05:36:12.296Z,1000.76
2023-12-28T05:36:40.102Z,1000.68
2023-12-28T05:37:10.067Z,1000.73
2023-12-28T05:37:40.094Z,1000.67
2023-12-28T05:38:10.057Z,1000.78
2023-12-28T05:38:40.044Z,1000.72
2023-12-28T05:39:10.039Z,1000.71
2023-12-28T05:39:40.110Z,1000.73
2023-12-28T05:40:10.065Z,1000.67
2023-12-28T05:40:40.021Z,1000.66
2023-12-28T05:41:10.024Z,1000.75
2023-12-28T05:41:40.026Z,1000.77
2023-12-28T05:42:10.037Z,1000.73
2023-12-28T05:42:40.097Z,1000.70
2023-12-28T05:43:10.040Z,1000.77
2023-12-28T05:43:40.003Z,1000.86
2023-12-28T05:44:13.110Z,1000.76
2023-12-28T05:44:58.146Z,1000.80
2023-12-28T05:45:09.995Z,1000.75
2023-12-28T05:45:40.134Z,1000.78
2023-12-28T05:46:09.974Z,1000.75
2023-12-28T05:46:39.969Z,1000.70
2023-12-28T05:47:10.692Z,1000.79
2023-12-28T05:47:40.003Z,1000.83
2023-12-28T05:48:10.082Z,1000.77
2023-12-28T05:48:40.076Z,1000.83
2023-12-28T05:49:10.059Z,1000.75
2023-12-28T05:49:40.035Z,1000.75
2023-12-28T05:50:09.961Z,1000.87
2023-12-28T05:50:39.939Z,1000.91
2023-12-28T05:51:09.946Z,1000.94
2023-12-28T05:51:39.929Z,1000.86
2023-12-28T05:52:09.929Z,1000.85
2023-12-28T05:52:39.948Z,1000.87
2023-12-28T05:53:09.925Z,1000.87
2023-12-28T05:53:39.912Z,1000.92
2023-12-28T05:54:10.208Z,1000.93
2023-12-28T05:54:39.904Z,1000.87
2023-12-28T05:55:09.887Z,1000.90
2023-12-28T05:55:39.880Z,1000.91
2023-12-28T05:56:09.877Z,1000.94
2023-12-28T05:56:39.867Z,1000.99
2023-12-28T05:57:09.886Z,1000.90
2023-12-28T05:57:39.887Z,1001.03
2023-12-28T05:58:10.090Z,1000.89
2023-12-28T05:58:40.035Z,1000.84
2023-12-28T05:59:09.838Z,1000.91
2023-12-28T05:59:40.706Z,1000.86
2023-12-28T06:00:09.834Z,1000.86
2023-12-28T06:00:39.876Z,1000.88
2023-12-28T06:01:09.984Z,1000.82
2023-12-28T06:01:39.872Z,1000.92
2023-12-28T06:02:09.812Z,1000.89
2023-12-28T06:02:39.818Z,1000.90
2023-12-28T06:03:09.815Z,1000.86
2023-12-28T06:03:39.911Z,1000.86
2023-12-28T06:04:09.866Z,1000.93
2023-12-28T06:04:39.967Z,1000.84
2023-12-28T06:05:10.815Z,1000.99